Time;durP1;ratioP1;P1;durP2;ratioP2;P2;SDS_P1;SDS_P2;PMS_P1;PMS_P2;Temp;Humidity;BMP_temperature;BMP_pressure;BME280_temperature;BME280_humidity;BME280_pressure;Samples;Min_cycle;Max_cycle;Signal;HPM_P1;HPM_P2
2021/07/18 00:01:16;;;;;;;1.08;0.98;;;14.30;99.90;;;;;;5015538;28;20286;-71
2021/07/18 00:03:41;;;;;;;0.85;0.85;;;14.20;99.90;;;;;;5019106;28;20232;-72
2021/07/18 00:06:07;;;;;;;0.80;0.80;;;14.20;99.90;;;;;;5016633;28;20707;-71
2021/07/18 00:08:33;;;;;;;1.77;1.67;;;14.10;99.90;;;;;;5015619;28;20248;-71
2021/07/18 00:10:58;;;;;;;0.63;0.63;;;14.20;99.90;;;;;;5020595;28;20260;-71
2021/07/18 00:13:24;;;;;;;1.48;1.38;;;14.10;99.90;;;;;;5020063;28;20259;-72
2021/07/18 00:15:50;;;;;;;2.13;1.92;;;14.10;99.90;;;;;;5025671;28;20613;-71
2021/07/18 00:18:16;;;;;;;1.80;1.20;;;14.10;99.90;;;;;;5018650;28;20687;-71
2021/07/18 00:20:42;;;;;;;1.55;1.25;;;14.10;99.90;;;;;;5014946;28;20210;-71
2021/07/18 00:23:08;;;;;;;3.17;2.03;;;14.10;99.90;;;;;;5013980;28;20244;-70
2021/07/18 00:25:33;;;;;;;1.70;1.08;;;14.00;99.90;;;;;;5018340;28;20879;-70
2021/07/18 00:28:01;;;;;;;0.93;0.93;;;14.00;99.90;;;;;;5022807;28;20189;-70
2021/07/18 00:30:27;;;;;;;3.90;1.02;;;14.00;99.90;;;;;;5016590;28;20194;-70
2021/07/18 00:32:53;;;;;;;0.73;0.73;;;14.00;99.90;;;;;;5020251;28;20198;-70
2021/07/18 00:35:19;;;;;;;0.70;0.70;;;13.90;99.90;;;;;;5019414;28;20218;-70
2021/07/18 00:37:45;;;;;;;1.00;1.00;;;13.90;99.90;;;;;;5016116;28;20198;-71
2021/07/18 00:40:11;;;;;;;1.38;1.10;;;13.90;99.90;;;;;;5018096;28;20238;-73
2021/07/18 00:42:37;;;;;;;0.60;0.60;;;13.90;99.90;;;;;;5023512;28;20211;-71
2021/07/18 00:45:05;;;;;;;0.88;0.88;;;13.90;99.90;;;;;;5014738;28;20209;-70
2021/07/18 00:47:32;;;;;;;0.80;0.80;;;13.80;99.90;;;;;;5025870;28;20321;-70
2021/07/18 00:50:03;;;;;;;1.05;0.85;;;13.80;99.90;;;;;;5015691;28;20203;-69
2021/07/18 00:52:29;;;;;;;0.80;0.80;;;13.80;99.90;;;;;;5022685;28;20198;-70
2021/07/18 00:54:55;;;;;;;0.77;0.77;;;13.80;99.90;;;;;;5016369;28;20688;-70
2021/07/18 00:57:22;;;;;;;2.67;1.55;;;13.80;99.90;;;;;;5012305;28;20201;-69
2021/07/18 00:59:48;;;;;;;2.53;1.42;;;13.80;99.90;;;;;;5010514;28;20277;-70
2021/07/18 01:02:15;;;;;;;2.67;1.40;;;13.70;99.90;;;;;;5021230;28;20213;-70
2021/07/18 01:04:41;;;;;;;1.13;1.02;;;13.70;99.90;;;;;;5019933;28;20237;-72
2021/07/18 01:07:07;;;;;;;2.17;1.83;;;13.70;99.90;;;;;;5013521;28;20266;-70
2021/07/18 01:09:34;;;;;;;0.68;0.68;;;13.70;99.90;;;;;;5018108;28;20206;-70
2021/07/18 01:11:59;;;;;;;1.05;0.98;;;13.70;99.90;;;;;;5019853;28;20202;-70
2021/07/18 01:14:25;;;;;;;1.90;1.48;;;13.70;99.90;;;;;;5019496;28;20672;-70
2021/07/18 01:16:51;;;;;;;0.70;0.70;;;13.60;99.90;;;;;;5022137;28;20312;-69
2021/07/18 01:19:19;;;;;;;1.27;1.02;;;13.60;99.90;;;;;;5020863;28;20305;-70
2021/07/18 01:21:54;;;;;;;0.55;0.55;;;13.60;99.90;;;;;;5017880;28;20202;-70
2021/07/18 01:24:19;;;;;;;3.40;1.05;;;13.50;99.90;;;;;;5027726;28;20652;-70
2021/07/18 01:26:45;;;;;;;1.27;0.50;;;13.50;99.90;;;;;;5022804;28;20357;-70
2021/07/18 01:29:11;;;;;;;0.80;0.80;;;13.50;99.90;;;;;;5028102;28;20210;-72
2021/07/18 01:31:37;;;;;;;0.70;0.70;;;13.50;99.90;;;;;;5022894;28;20194;-69
2021/07/18 01:34:03;;;;;;;0.75;0.75;;;13.50;99.90;;;;;;5023504;28;20194;-69
2021/07/18 01:36:28;;;;;;;0.40;0.40;;;13.40;99.90;;;;;;5025379;28;20280;-69
2021/07/18 01:38:54;;;;;;;1.38;0.77;;;13.50;99.90;;;;;;5020812;28;20244;-70
2021/07/18 01:41:20;;;;;;;2.67;1.35;;;13.50;99.90;;;;;;5026394;28;20213;-70
2021/07/18 01:43:45;;;;;;;0.55;0.55;;;13.40;99.90;;;;;;5022235;28;20206;-69
2021/07/18 01:46:11;;;;;;;0.63;0.63;;;13.40;99.90;;;;;;5022303;28;20210;-72
2021/07/18 01:48:37;;;;;;;1.48;1.38;;;13.30;99.90;;;;;;5022446;28;21383;-70
2021/07/18 01:51:02;;;;;;;1.17;0.88;;;13.30;99.90;;;;;;5021970;28;20199;-70
2021/07/18 01:53:28;;;;;;;1.58;0.80;;;13.40;99.90;;;;;;5020543;28;20197;-70
2021/07/18 01:55:54;;;;;;;0.82;0.82;;;13.30;99.90;;;;;;5018915;28;20208;-70
2021/07/18 01:58:29;;;;;;;1.05;1.05;;;13.30;99.90;;;;;;5018352;28;20598;-69
2021/07/18 02:00:56;;;;;;;0.80;0.80;;;13.30;99.90;;;;;;5022323;28;20216;-69
2021/07/18 02:03:22;;;;;;;0.60;0.60;;;13.30;99.90;;;;;;5024332;28;20227;-70
2021/07/18 02:05:49;;;;;;;0.40;0.40;;;13.20;99.90;;;;;;5040190;28;20319;-71
2021/07/18 02:08:18;;;;;;;24.30;1.45;;;13.20;99.90;;;;;;5026896;28;20226;-70
2021/07/18 02:10:44;;;;;;;0.80;0.80;;;13.30;99.90;;;;;;5019980;28;20208;-70
2021/07/18 02:13:15;;;;;;;0.88;0.88;;;13.30;99.90;;;;;;5021547;28;20290;-70
2021/07/18 02:15:40;;;;;;;0.70;0.70;;;13.30;99.90;;;;;;5023601;28;20206;-70
2021/07/18 02:18:06;;;;;;;0.52;0.52;;;13.30;99.90;;;;;;5021081;28;20569;-69
2021/07/18 02:20:33;;;;;;;0.77;0.77;;;13.30;99.90;;;;;;5025835;28;20715;-69
2021/07/18 02:22:59;;;;;;;0.40;0.40;;;13.30;99.90;;;;;;5042300;28;20198;-69
2021/07/18 02:25:25;;;;;;;0.60;0.60;;;13.30;99.90;;;;;;5019825;28;20198;-69
2021/07/18 02:27:52;;;;;;;0.60;0.60;;;13.20;99.90;;;;;;5024315;28;20579;-69
2021/07/18 02:30:23;;;;;;;2.22;1.67;;;13.20;99.90;;;;;;5020239;28;20190;-69
2021/07/18 02:32:50;;;;;;;0.40;0.40;;;13.20;99.90;;;;;;5024709;28;20641;-69
2021/07/18 02:35:16;;;;;;;0.75;0.75;;;13.20;99.90;;;;;;5013748;28;20274;-71
2021/07/18 02:37:43;;;;;;;1.73;1.27;;;13.10;99.90;;;;;;5022303;28;20202;-70
2021/07/18 02:40:10;;;;;;;1.45;1.35;;;13.10;99.90;;;;;;5020393;28;20245;-72
2021/07/18 02:42:36;;;;;;;0.60;0.60;;;13.20;99.90;;;;;;5019054;28;20207;-69
2021/07/18 02:45:08;;;;;;;0.57;0.57;;;13.20;99.90;;;;;;5021003;28;20723;-69
2021/07/18 02:47:34;;;;;;;0.65;0.65;;;13.20;99.90;;;;;;5025622;28;20286;-70
2021/07/18 02:49:59;;;;;;;0.50;0.50;;;13.20;99.90;;;;;;5021218;28;20942;-69
2021/07/18 02:52:25;;;;;;;0.40;0.40;;;13.20;99.90;;;;;;5018501;28;20205;-70
2021/07/18 02:54:51;;;;;;;2.05;0.82;;;13.20;99.90;;;;;;5019161;28;20799;-69
2021/07/18 02:57:19;;;;;;;0.60;0.60;;;13.20;99.90;;;;;;5020821;28;20186;-70
2021/07/18 02:59:45;;;;;;;0.80;0.80;;;13.20;99.90;;;;;;5021811;28;20205;-69
2021/07/18 03:02:11;;;;;;;1.00;0.98;;;13.30;99.90;;;;;;5025209;28;20586;-71
2021/07/18 03:04:36;;;;;;;0.50;0.50;;;13.40;99.90;;;;;;5020696;28;20252;-69
2021/07/18 03:07:02;;;;;;;0.52;0.52;;;13.40;99.90;;;;;;5018322;28;20234;-71
2021/07/18 03:09:28;;;;;;;0.40;0.40;;;13.50;99.90;;;;;;5012984;28;20278;-69
2021/07/18 03:11:54;;;;;;;0.85;0.82;;;13.60;99.90;;;;;;5022834;28;20194;-71
2021/07/18 03:14:20;;;;;;;0.70;0.70;;;13.70;99.90;;;;;;5021036;28;20216;-71
2021/07/18 03:16:47;;;;;;;0.50;0.50;;;13.80;99.90;;;;;;5023686;28;20263;-69
2021/07/18 03:19:13;;;;;;;0.40;0.40;;;13.90;99.90;;;;;;5026069;28;20523;-70
2021/07/18 03:21:39;;;;;;;0.63;0.63;;;14.00;99.90;;;;;;5020008;28;20279;-69
2021/07/18 03:24:05;;;;;;;3.08;0.90;;;14.00;99.90;;;;;;5027046;28;20264;-69
2021/07/18 03:26:31;;;;;;;0.98;0.52;;;14.10;99.90;;;;;;5016778;28;20684;-69
2021/07/18 03:28:57;;;;;;;0.50;0.50;;;14.10;99.90;;;;;;5023289;28;20202;-69
2021/07/18 03:31:24;;;;;;;0.40;0.40;;;14.10;99.90;;;;;;5022799;28;20198;-69
2021/07/18 03:33:49;;;;;;;0.50;0.50;;;14.10;99.90;;;;;;5018685;28;20518;-70
2021/07/18 03:36:15;;;;;;;0.75;0.75;;;14.10;99.90;;;;;;5019525;28;20205;-70
2021/07/18 03:38:41;;;;;;;0.98;0.77;;;14.10;99.90;;;;;;5016601;28;20203;-72
2021/07/18 03:41:07;;;;;;;0.82;0.82;;;14.20;99.90;;;;;;5023847;28;20198;-69
2021/07/18 03:43:33;;;;;;;0.57;0.57;;;14.20;99.90;;;;;;5018940;28;20249;-70
2021/07/18 03:45:58;;;;;;;3.35;1.40;;;14.20;99.90;;;;;;5019720;28;20218;-69
2021/07/18 03:48:24;;;;;;;0.80;0.80;;;14.30;99.90;;;;;;5018479;28;20563;-71
2021/07/18 03:50:50;;;;;;;1.05;0.93;;;14.30;99.90;;;;;;5021850;28;20620;-69
2021/07/18 03:53:17;;;;;;;0.40;0.40;;;14.40;99.90;;;;;;5026041;28;20688;-69
2021/07/18 03:55:42;;;;;;;0.50;0.50;;;14.50;99.90;;;;;;5012757;28;20266;-69
2021/07/18 03:58:08;;;;;;;2.22;0.82;;;14.70;99.90;;;;;;5018016;28;20206;-70
2021/07/18 04:00:34;;;;;;;0.65;0.65;;;14.80;99.90;;;;;;5021849;28;20651;-70
2021/07/18 04:03:00;;;;;;;0.30;0.30;;;15.00;99.90;;;;;;5023768;28;20197;-68
2021/07/18 04:05:26;;;;;;;0.40;0.40;;;15.10;99.90;;;;;;5023630;28;20227;-69
2021/07/18 04:07:52;;;;;;;0.52;0.52;;;15.30;99.90;;;;;;5019016;28;20226;-70
2021/07/18 04:10:17;;;;;;;0.65;0.65;;;15.50;99.90;;;;;;5018041;28;20257;-69
2021/07/18 04:12:43;;;;;;;0.50;0.50;;;15.60;99.90;;;;;;5020162;28;20199;-70
2021/07/18 04:15:09;;;;;;;0.40;0.40;;;15.70;99.90;;;;;;5009080;28;20921;-69
2021/07/18 04:17:35;;;;;;;0.70;0.70;;;15.70;99.90;;;;;;5020427;28;20206;-71
2021/07/18 04:20:01;;;;;;;0.52;0.52;;;15.70;99.90;;;;;;5021585;28;20202;-69
2021/07/18 04:22:27;;;;;;;0.68;0.57;;;15.70;99.90;;;;;;5018708;28;20195;-68
2021/07/18 04:24:53;;;;;;;1.33;1.15;;;15.80;99.90;;;;;;5015239;28;20225;-69
2021/07/18 04:27:18;;;;;;;0.75;0.50;;;16.00;99.90;;;;;;5019134;28;20657;-70
2021/07/18 04:29:44;;;;;;;0.40;0.40;;;16.10;99.90;;;;;;5015642;28;20213;-70
2021/07/18 04:32:10;;;;;;;0.50;0.50;;;16.20;99.90;;;;;;5011013;28;20229;-69
2021/07/18 04:34:36;;;;;;;0.40;0.40;;;16.30;99.90;;;;;;5013461;28;20202;-69
2021/07/18 04:37:02;;;;;;;0.30;0.30;;;16.40;99.90;;;;;;5020061;28;20544;-68
2021/07/18 04:39:28;;;;;;;0.30;0.30;;;16.60;99.90;;;;;;5012685;28;20277;-68
2021/07/18 04:41:54;;;;;;;0.40;0.40;;;16.70;99.90;;;;;;5021041;28;20223;-69
2021/07/18 04:44:19;;;;;;;0.40;0.40;;;16.80;99.90;;;;;;5014796;28;21075;-68
2021/07/18 04:46:45;;;;;;;0.73;0.73;;;16.80;99.90;;;;;;5024072;28;20550;-68
2021/07/18 04:49:11;;;;;;;0.30;0.30;;;16.90;99.90;;;;;;5022129;28;20186;-69
2021/07/18 04:51:37;;;;;;;0.30;0.30;;;17.00;99.90;;;;;;5024850;28;20210;-69
2021/07/18 04:54:03;;;;;;;0.55;0.55;;;17.10;99.90;;;;;;5027466;28;20190;-71
2021/07/18 04:56:28;;;;;;;0.30;0.30;;;17.20;99.90;;;;;;5020552;28;20198;-70
2021/07/18 04:58:54;;;;;;;0.30;0.30;;;17.20;99.90;;;;;;5025748;28;20263;-70
2021/07/18 05:01:20;;;;;;;0.30;0.30;;;17.20;99.90;;;;;;5024835;28;20213;-71
2021/07/18 05:03:45;;;;;;;0.30;0.30;;;17.30;99.90;;;;;;5023311;28;20212;-71
2021/07/18 05:06:11;;;;;;;0.55;0.55;;;17.30;99.90;;;;;;5026207;28;20556;-69
2021/07/18 05:08:37;;;;;;;0.52;0.52;;;17.40;99.90;;;;;;5027831;28;20660;-70
2021/07/18 05:11:03;;;;;;;0.40;0.40;;;17.50;99.90;;;;;;5017852;28;20260;-70
2021/07/18 05:13:29;;;;;;;0.30;0.30;;;17.60;99.90;;;;;;5020107;28;20252;-70
2021/07/18 05:15:55;;;;;;;0.30;0.30;;;17.70;99.90;;;;;;5023578;28;20202;-70
2021/07/18 05:18:20;;;;;;;0.30;0.30;;;17.70;99.90;;;;;;5021182;28;20575;-71
2021/07/18 05:20:46;;;;;;;0.30;0.30;;;17.80;99.90;;;;;;5028853;28;20557;-68
2021/07/18 05:23:12;;;;;;;0.30;0.30;;;17.90;99.90;;;;;;5018169;28;20599;-69
2021/07/18 05:25:38;;;;;;;0.30;0.30;;;18.00;99.90;;;;;;5017518;28;20617;-69
2021/07/18 05:28:05;;;;;;;0.30;0.30;;;18.00;99.90;;;;;;5026651;28;20209;-70
2021/07/18 05:30:31;;;;;;;0.30;0.30;;;18.20;99.90;;;;;;5020021;28;20197;-69
2021/07/18 05:32:57;;;;;;;0.30;0.30;;;18.30;99.90;;;;;;5020435;28;20596;-70
2021/07/18 05:35:23;;;;;;;0.20;0.20;;;18.30;99.90;;;;;;5024645;28;20225;-69
2021/07/18 05:37:50;;;;;;;0.30;0.30;;;18.40;99.90;;;;;;5018496;28;20330;-70
2021/07/18 05:40:16;;;;;;;9.20;0.63;;;18.60;99.90;;;;;;5027041;28;20545;-69
2021/07/18 05:42:42;;;;;;;0.40;0.40;;;18.70;99.90;;;;;;5020477;28;20297;-72
2021/07/18 05:45:12;;;;;;;0.20;0.20;;;18.70;99.90;;;;;;5024094;28;20247;-70
2021/07/18 05:47:39;;;;;;;0.20;0.20;;;18.80;99.90;;;;;;5018168;28;20198;-72
2021/07/18 05:50:06;;;;;;;0.30;0.30;;;18.80;99.90;;;;;;5021176;28;20194;-71
2021/07/18 05:52:32;;;;;;;0.20;0.20;;;18.90;99.90;;;;;;5018879;28;20190;-72
2021/07/18 05:54:58;;;;;;;0.20;0.20;;;19.10;99.90;;;;;;5014882;28;20198;-72
2021/07/18 05:57:23;;;;;;;0.40;0.40;;;19.20;99.90;;;;;;5023591;28;20302;-69
2021/07/18 05:59:49;;;;;;;0.25;0.25;;;19.20;99.90;;;;;;5017352;28;20223;-69
2021/07/18 06:02:15;;;;;;;0.43;0.43;;;19.30;99.90;;;;;;5015843;28;20191;-70
2021/07/18 06:04:42;;;;;;;0.30;0.30;;;19.40;99.90;;;;;;5018204;28;20220;-70
2021/07/18 06:07:08;;;;;;;0.30;0.30;;;19.40;99.90;;;;;;5024433;28;20568;-70
2021/07/18 06:09:34;;;;;;;0.25;0.25;;;19.50;99.90;;;;;;5013566;28;20222;-70
2021/07/18 06:12:00;;;;;;;0.35;0.35;;;19.60;99.90;;;;;;5017993;28;20242;-71
2021/07/18 06:14:26;;;;;;;0.43;0.30;;;19.60;99.90;;;;;;5015141;28;20200;-72
2021/07/18 06:16:52;;;;;;;0.45;0.30;;;19.70;99.90;;;;;;5040369;28;20225;-70
2021/07/18 06:19:17;;;;;;;0.45;0.30;;;19.80;99.90;;;;;;5012244;28;20233;-70
2021/07/18 06:21:43;;;;;;;0.20;0.20;;;19.90;99.90;;;;;;5034248;28;20209;-70
2021/07/18 06:24:09;;;;;;;0.30;0.30;;;19.90;99.90;;;;;;5016472;28;20209;-71
2021/07/18 06:26:35;;;;;;;0.30;0.30;;;20.10;99.90;;;;;;5016710;28;20285;-70
2021/07/18 06:29:00;;;;;;;0.30;0.30;;;20.10;99.90;;;;;;5016021;28;20549;-73
2021/07/18 06:31:27;;;;;;;0.40;0.40;;;20.20;99.90;;;;;;5021336;28;20207;-71
2021/07/18 06:33:52;;;;;;;0.25;0.25;;;20.10;99.90;;;;;;5018692;28;20203;-73
2021/07/18 06:36:18;;;;;;;0.20;0.20;;;20.10;99.90;;;;;;5021364;28;20248;-73
2021/07/18 06:38:44;;;;;;;0.20;0.20;;;20.20;99.90;;;;;;5018410;28;20228;-75
2021/07/18 06:41:10;;;;;;;0.25;0.25;;;20.60;99.90;;;;;;5018235;28;20272;-73
2021/07/18 06:43:36;;;;;;;0.30;0.30;;;20.90;99.90;;;;;;5016065;28;20206;-73
2021/07/18 06:46:01;;;;;;;0.40;0.40;;;21.10;99.90;;;;;;5016188;28;20216;-73
2021/07/18 06:48:27;;;;;;;0.30;0.30;;;21.20;99.90;;;;;;5011097;28;20285;-73
2021/07/18 06:50:53;;;;;;;0.20;0.20;;;21.10;99.90;;;;;;5033785;28;20274;-73
2021/07/18 06:53:18;;;;;;;0.38;0.30;;;21.10;99.90;;;;;;5015832;28;20198;-74
2021/07/18 06:55:44;;;;;;;0.20;0.20;;;21.10;99.90;;;;;;5011709;28;20294;-75
2021/07/18 06:58:10;;;;;;;0.38;0.38;;;20.90;99.90;;;;;;5011058;28;20223;-72
2021/07/18 07:00:35;;;;;;;0.22;0.22;;;21.00;99.90;;;;;;5017989;28;20220;-74
2021/07/18 07:03:02;;;;;;;0.40;0.30;;;21.10;99.90;;;;;;5010533;28;20202;-73
2021/07/18 07:05:28;;;;;;;0.30;0.30;;;21.20;99.90;;;;;;5010197;28;20300;-72
2021/07/18 07:07:53;;;;;;;0.10;0.10;;;21.10;99.90;;;;;;5012278;28;20293;-75
2021/07/18 07:10:20;;;;;;;0.32;0.32;;;21.10;99.90;;;;;;5015277;28;20284;-72
2021/07/18 07:12:47;;;;;;;0.20;0.20;;;21.20;99.10;;;;;;5031800;28;20205;-73
2021/07/18 07:15:13;;;;;;;0.40;0.40;;;21.00;99.70;;;;;;5013627;28;20268;-71
2021/07/18 07:17:42;;;;;;;0.30;0.30;;;21.10;98.60;;;;;;5017467;28;20227;-73
2021/07/18 07:20:09;;;;;;;0.20;0.20;;;21.20;99.80;;;;;;5018220;28;20197;-73
2021/07/18 07:22:35;;;;;;;0.20;0.20;;;21.40;98.80;;;;;;5016731;28;20209;-73
2021/07/18 07:25:06;;;;;;;0.20;0.20;;;21.50;99.90;;;;;;5014316;28;20319;-73
2021/07/18 07:27:33;;;;;;;0.20;0.20;;;22.00;98.20;;;;;;5016517;28;20189;-73
2021/07/18 07:29:59;;;;;;;0.77;0.73;;;22.30;98.50;;;;;;5013187;28;20312;-73
2021/07/18 07:32:24;;;;;;;0.20;0.20;;;22.40;96.00;;;;;;5016715;28;20328;-74
2021/07/18 07:34:50;;;;;;;0.25;0.25;;;22.50;97.10;;;;;;5028399;28;20217;-72
2021/07/18 07:37:16;;;;;;;0.20;0.20;;;22.40;95.80;;;;;;5018276;28;20267;-73
2021/07/18 07:39:42;;;;;;;0.20;0.20;;;22.30;96.30;;;;;;5020695;28;20745;-72
2021/07/18 07:42:08;;;;;;;0.30;0.30;;;22.30;94.50;;;;;;5017022;28;20537;-72
2021/07/18 07:44:33;;;;;;;0.20;0.20;;;22.30;94.60;;;;;;5015581;28;20491;-72
2021/07/18 07:47:00;;;;;;;1.05;0.75;;;22.20;95.20;;;;;;5013948;28;20203;-73
2021/07/18 07:49:26;;;;;;;0.30;0.30;;;22.20;95.50;;;;;;5017825;28;20202;-73
2021/07/18 07:51:52;;;;;;;0.20;0.20;;;22.30;94.30;;;;;;5014734;28;20198;-73
2021/07/18 07:54:18;;;;;;;0.20;0.20;;;22.30;94.60;;;;;;5017922;28;20204;-73
2021/07/18 07:56:44;;;;;;;0.22;0.22;;;22.30;93.50;;;;;;5017451;28;20207;-75
2021/07/18 07:59:09;;;;;;;0.20;0.20;;;22.50;92.80;;;;;;5018749;28;20485;-73
2021/07/18 08:01:35;;;;;;;0.85;0.22;;;22.40;93.20;;;;;;5016644;28;20244;-72
2021/07/18 08:04:01;;;;;;;0.10;0.10;;;22.40;91.80;;;;;;5014352;28;20304;-73
2021/07/18 08:06:26;;;;;;;0.20;0.20;;;22.60;94.00;;;;;;5017349;28;20226;-73
2021/07/18 08:08:52;;;;;;;0.20;0.20;;;22.70;91.90;;;;;;5018418;28;20305;-73
2021/07/18 08:11:18;;;;;;;0.20;0.20;;;22.70;91.60;;;;;;5011981;28;20673;-72
2021/07/18 08:13:43;;;;;;;0.20;0.20;;;22.70;92.80;;;;;;5017327;28;20250;-74
2021/07/18 08:16:09;;;;;;;0.20;0.20;;;22.80;93.00;;;;;;5012752;28;20233;-75
2021/07/18 08:18:37;;;;;;;0.38;0.30;;;23.00;92.00;;;;;;5015537;28;20208;-73
2021/07/18 08:21:03;;;;;;;0.45;0.45;;;23.20;88.70;;;;;;5012579;28;20198;-72
2021/07/18 08:23:31;;;;;;;0.55;0.40;;;23.00;83.30;;;;;;5017023;28;20602;-72
2021/07/18 08:25:56;;;;;;;0.20;0.20;;;22.90;85.40;;;;;;5017301;28;20214;-73
2021/07/18 08:28:24;;;;;;;0.20;0.20;;;22.90;88.50;;;;;;5019120;28;20237;-73
2021/07/18 08:30:50;;;;;;;0.20;0.20;;;23.10;84.10;;;;;;5018195;28;20213;-74
2021/07/18 08:33:16;;;;;;;0.20;0.20;;;22.90;87.50;;;;;;5012657;28;20637;-72
2021/07/18 08:35:42;;;;;;;0.20;0.20;;;23.10;83.30;;;;;;5018154;28;20608;-72
2021/07/18 08:38:08;;;;;;;0.60;0.20;;;22.70;84.30;;;;;;5019212;28;20198;-72
2021/07/18 08:40:36;;;;;;;0.20;0.20;;;22.80;88.10;;;;;;5016701;28;20210;-72
2021/07/18 08:43:03;;;;;;;0.63;0.20;;;22.80;88.40;;;;;;5019774;28;20696;-73
2021/07/18 08:45:29;;;;;;;0.20;0.20;;;22.90;90.40;;;;;;5011615;28;20247;-73
2021/07/18 08:47:55;;;;;;;0.10;0.10;;;23.30;87.50;;;;;;5016252;28;20353;-73
2021/07/18 08:50:21;;;;;;;0.20;0.20;;;23.40;86.00;;;;;;5018379;28;20269;-75
2021/07/18 08:52:52;;;;;;;0.13;0.13;;;23.60;90.30;;;;;;5011864;28;20225;-74
2021/07/18 08:55:19;;;;;;;0.10;0.10;;;24.10;87.70;;;;;;5012373;28;20588;-74
2021/07/18 08:57:45;;;;;;;0.20;0.20;;;24.20;88.70;;;;;;5008410;28;20690;-76
2021/07/18 09:00:12;;;;;;;0.30;0.30;;;24.20;83.70;;;;;;5006425;28;20236;-73
2021/07/18 09:02:39;;;;;;;0.20;0.20;;;24.50;84.00;;;;;;5008395;28;20199;-74
2021/07/18 09:05:05;;;;;;;0.10;0.10;;;25.00;85.40;;;;;;5012570;28;20626;-73
2021/07/18 09:07:41;;;;;;;0.13;0.13;;;24.60;81.60;;;;;;5016045;28;20202;-75
2021/07/18 09:10:07;;;;;;;0.22;0.22;;;24.60;79.70;;;;;;5017903;28;20209;-74
2021/07/18 09:12:34;;;;;;;0.82;0.52;;;24.60;84.40;;;;;;5011203;28;20293;-72
2021/07/18 09:15:00;;;;;;;1.08;0.30;;;24.80;81.50;;;;;;5009784;28;20220;-74
2021/07/18 09:17:32;;;;;;;0.10;0.10;;;24.70;80.10;;;;;;5020265;28;20194;-72
2021/07/18 09:20:00;;;;;;;0.10;0.10;;;24.90;79.20;;;;;;5019226;28;20191;-74
2021/07/18 09:22:26;;;;;;;0.10;0.10;;;24.90;78.70;;;;;;5012866;28;20584;-73
2021/07/18 09:24:59;;;;;;;0.10;0.10;;;24.90;75.30;;;;;;5020366;28;20198;-75
2021/07/18 09:27:29;;;;;;;0.10;0.10;;;25.00;78.50;;;;;;5019787;28;20198;-73
2021/07/18 09:30:08;;;;;;;0.10;0.10;;;25.30;77.50;;;;;;5017388;28;20554;-74
2021/07/18 09:32:36;;;;;;;0.10;0.10;;;25.20;75.90;;;;;;5016875;28;20186;-74
2021/07/18 09:35:05;;;;;;;0.25;0.25;;;25.10;76.90;;;;;;5013618;28;20743;-75
2021/07/18 09:37:33;;;;;;;0.13;0.13;;;25.10;70.50;;;;;;5014992;28;20611;-74
2021/07/18 09:40:03;;;;;;;0.10;0.10;;;25.10;77.80;;;;;;5017195;28;20194;-73
2021/07/18 09:42:33;;;;;;;0.90;0.20;;;25.00;74.00;;;;;;5016877;28;20199;-74
2021/07/18 09:45:00;;;;;;;0.88;0.20;;;24.90;76.60;;;;;;5010514;28;20629;-74
2021/07/18 09:47:27;;;;;;;0.10;0.10;;;24.60;75.50;;;;;;5019863;28;20320;-74
2021/07/18 09:49:54;;;;;;;0.50;0.50;;;24.80;77.60;;;;;;5014023;28;20190;-74
2021/07/18 09:52:22;;;;;;;0.10;0.10;;;24.90;74.80;;;;;;5016284;28;20598;-74
2021/07/18 09:54:53;;;;;;;0.10;0.10;;;25.00;76.60;;;;;;5013801;28;20198;-74
2021/07/18 09:57:42;;;;;;;0.20;0.20;;;24.80;74.50;;;;;;5019022;28;20199;-73
2021/07/18 10:00:10;;;;;;;0.20;0.20;;;25.10;75.80;;;;;;5020256;28;20190;-73
2021/07/18 10:02:39;;;;;;;0.10;0.10;;;25.10;71.70;;;;;;5022298;28;20530;-73
2021/07/18 10:05:05;;;;;;;0.10;0.10;;;25.50;70.20;;;;;;5016143;28;20203;-74
2021/07/18 10:07:33;;;;;;;0.10;0.10;;;25.30;75.20;;;;;;5017087;28;20199;-74
2021/07/18 10:10:00;;;;;;;0.10;0.10;;;25.80;74.80;;;;;;5014490;28;20551;-75
2021/07/18 10:12:26;;;;;;;0.10;0.10;;;26.40;73.40;;;;;;5018238;28;20536;-74
2021/07/18 10:14:53;;;;;;;0.10;0.10;;;25.70;71.20;;;;;;5015465;28;20198;-73
2021/07/18 10:17:18;;;;;;;0.10;0.10;;;24.80;72.50;;;;;;5020799;28;20497;-73
2021/07/18 10:19:44;;;;;;;0.20;0.20;;;24.00;73.30;;;;;;5031692;28;20264;-73
2021/07/18 10:22:12;;;;;;;0.30;0.30;;;23.30;79.20;;;;;;5018698;28;20209;-73
2021/07/18 10:24:40;;;;;;;0.10;0.10;;;23.00;80.00;;;;;;5011475;28;20790;-74
2021/07/18 10:27:06;;;;;;;0.10;0.10;;;23.20;80.80;;;;;;5020401;28;20214;-73
2021/07/18 10:29:33;;;;;;;0.10;0.10;;;23.40;78.60;;;;;;5017164;28;21285;-75
2021/07/18 10:32:07;;;;;;;0.20;0.20;;;23.60;78.60;;;;;;5015133;28;20284;-73
2021/07/18 10:34:37;;;;;;;0.10;0.10;;;24.10;79.20;;;;;;5028398;28;20244;-75
2021/07/18 10:37:09;;;;;;;0.10;0.10;;;24.30;79.00;;;;;;5016289;28;20277;-73
2021/07/18 10:39:37;;;;;;;0.17;0.17;;;24.50;73.50;;;;;;5017055;28;20206;-74
2021/07/18 10:42:06;;;;;;;0.10;0.10;;;24.40;76.90;;;;;;5014375;28;20224;-75
2021/07/18 10:44:47;;;;;;;0.32;0.28;;;24.50;76.00;;;;;;5019133;28;20198;-74
2021/07/18 10:47:14;;;;;;;0.75;0.52;;;24.40;74.90;;;;;;5014330;28;20293;-73
2021/07/18 10:49:50;;;;;;;0.20;0.20;;;24.20;75.10;;;;;;5014436;28;20579;-75
2021/07/18 10:52:17;;;;;;;0.20;0.20;;;23.80;77.20;;;;;;5019529;28;20201;-73
2021/07/18 10:54:43;;;;;;;0.25;0.25;;;24.00;78.60;;;;;;5019965;28;20260;-75
2021/07/18 10:57:32;;;;;;;0.10;0.10;;;24.00;77.00;;;;;;5030319;28;20215;-75
2021/07/18 11:00:21;;;;;;;0.20;0.20;;;24.20;78.20;;;;;;5022331;28;20234;-74
2021/07/18 11:02:46;;;;;;;0.10;0.10;;;24.90;79.20;;;;;;5016003;28;20299;-75
2021/07/18 11:05:17;;;;;;;0.20;0.20;;;25.70;75.90;;;;;;5019754;28;20679;-75
2021/07/18 11:07:53;;;;;;;0.10;0.10;;;25.70;77.10;;;;;;5017851;28;20213;-74
2021/07/18 11:10:21;;;;;;;0.10;0.10;;;25.90;73.80;;;;;;5019643;28;20284;-74
2021/07/18 11:13:09;;;;;;;0.10;0.10;;;26.50;72.50;;;;;;5013980;28;20690;-73
2021/07/18 11:15:39;;;;;;;0.17;0.17;;;26.90;67.90;;;;;;5030273;28;20215;-75
2021/07/18 11:18:32;;;;;;;0.10;0.10;;;26.70;61.00;;;;;;5021460;28;20204;-74
2021/07/18 11:20:58;;;;;;;0.10;0.10;;;26.10;67.40;;;;;;5020338;28;20194;-75
2021/07/18 11:23:47;;;;;;;0.43;0.10;;;26.10;69.00;;;;;;5017798;28;20229;-74
2021/07/18 11:26:16;;;;;;;0.10;0.10;;;26.40;70.70;;;;;;5015926;28;20688;-73
2021/07/18 11:28:56;;;;;;;0.10;0.10;;;27.00;70.60;;;;;;5016260;28;20197;-74
2021/07/18 11:31:28;;;;;;;0.10;0.10;;;27.60;67.40;;;;;;5007629;28;20221;-74
2021/07/18 11:34:04;;;;;;;0.10;0.10;;;28.30;72.10;;;;;;5016716;28;20205;-75
2021/07/18 11:36:33;;;;;;;0.50;0.50;;;28.20;66.10;;;;;;5014941;28;20193;-75
2021/07/18 11:39:01;;;;;;;0.10;0.10;;;28.20;60.50;;;;;;5020235;28;20201;-73
2021/07/18 11:41:29;;;;;;;0.05;0.05;;;27.40;61.40;;;;;;5017711;28;20339;-74
2021/07/18 11:43:57;;;;;;;0.10;0.10;;;26.70;65.40;;;;;;5019632;28;20215;-74
2021/07/18 11:46:24;;;;;;;0.10;0.10;;;26.90;68.20;;;;;;5017099;28;20748;-74
2021/07/18 11:48:53;;;;;;;0.10;0.10;;;27.60;67.20;;;;;;5018285;28;20190;-74
2021/07/18 11:51:21;;;;;;;0.10;0.10;;;28.00;63.20;;;;;;5016476;28;20193;-74
2021/07/18 11:53:51;;;;;;;0.10;0.10;;;27.50;64.80;;;;;;5011820;28;20296;-74
2021/07/18 11:56:25;;;;;;;0.20;0.20;;;26.90;65.40;;;;;;5014028;28;20614;-73
2021/07/18 11:58:52;;;;;;;0.22;0.22;;;26.00;64.90;;;;;;5018804;28;20204;-74
2021/07/18 12:01:22;;;;;;;0.20;0.10;;;25.20;68.90;;;;;;5010231;28;20252;-75
2021/07/18 12:03:49;;;;;;;0.10;0.10;;;24.60;70.40;;;;;;5012696;28;20202;-75
2021/07/18 12:06:23;;;;;;;0.10;0.10;;;24.70;72.80;;;;;;5017860;28;20230;-74
2021/07/18 12:08:49;;;;;;;0.10;0.10;;;25.80;70.80;;;;;;5019080;28;20199;-75
2021/07/18 12:11:26;;;;;;;0.20;0.20;;;26.80;66.30;;;;;;5006599;28;20206;-75
2021/07/18 12:13:53;;;;;;;1.27;0.75;;;26.10;70.00;;;;;;5032130;28;20197;-72
2021/07/18 12:16:22;;;;;;;0.15;0.15;;;25.30;66.90;;;;;;5024595;28;20203;-76
2021/07/18 12:18:50;;;;;;;1.17;0.30;;;24.30;72.80;;;;;;5013955;28;20214;-75
2021/07/18 12:21:21;;;;;;;0.10;0.10;;;24.20;67.50;;;;;;5013272;28;20194;-76
2021/07/18 12:24:11;;;;;;;0.15;0.15;;;24.90;67.60;;;;;;5017418;28;20747;-73
2021/07/18 12:26:38;;;;;;;0.17;0.17;;;25.70;64.60;;;;;;4987429;28;20218;-74
2021/07/18 12:29:09;;;;;;;0.20;0.20;;;25.50;62.90;;;;;;5017079;28;20203;-76
2021/07/18 12:31:36;;;;;;;0.30;0.30;;;25.40;63.80;;;;;;5018399;28;20296;-77
2021/07/18 12:34:03;;;;;;;0.10;0.10;;;24.90;67.60;;;;;;5018865;28;20206;-77
2021/07/18 12:36:28;;;;;;;0.10;0.10;;;24.80;66.60;;;;;;5019797;28;20317;-76
2021/07/18 12:38:54;;;;;;;0.10;0.10;;;25.40;67.80;;;;;;5016909;28;20304;-77
2021/07/18 12:41:20;;;;;;;0.10;0.10;;;26.10;66.20;;;;;;5020014;28;20212;-77
2021/07/18 12:43:46;;;;;;;0.17;0.17;;;26.70;66.20;;;;;;5023423;28;20205;-78
2021/07/18 12:46:18;;;;;;;0.10;0.10;;;27.00;64.10;;;;;;5024713;28;20210;-77
2021/07/18 12:48:44;;;;;;;0.10;0.10;;;27.80;63.10;;;;;;5023000;28;20196;-78